Time;durP1;ratioP1;P1;durP2;ratioP2;P2;SDS_P1;SDS_P2;PMS_P1;PMS_P2;Temp;Humidity;BMP_temperature;BMP_pressure;BME280_temperature;BME280_humidity;BME280_pressure;Samples;Min_cycle;Max_cycle;Signal;HPM_P1;HPM_P2
2021/04/26 00:01:48;;;;;;;6.17;2.00;;;7.30;55.40;;;;;;5034871;28;20454;-82
2021/04/26 00:04:14;;;;;;;4.03;1.80;;;7.30;55.50;;;;;;5034507;28;20950;-82
2021/04/26 00:06:40;;;;;;;1.77;1.60;;;7.30;55.40;;;;;;5034634;28;20486;-82
2021/04/26 00:09:07;;;;;;;3.00;2.10;;;7.20;55.40;;;;;;5034459;28;20958;-82
2021/04/26 00:11:34;;;;;;;2.23;2.03;;;7.20;55.50;;;;;;5034952;28;20466;-82
2021/04/26 00:14:01;;;;;;;2.50;2.20;;;7.20;56.60;;;;;;5034322;28;21027;-82
2021/04/26 00:16:27;;;;;;;4.30;2.00;;;7.20;56.50;;;;;;5034513;28;20478;-82
2021/04/26 00:18:53;;;;;;;5.23;2.03;;;7.20;56.00;;;;;;5034507;28;20814;-82
2021/04/26 00:21:19;;;;;;;1.80;1.70;;;7.10;56.00;;;;;;5034452;28;20458;-82
2021/04/26 00:23:46;;;;;;;1.53;1.43;;;7.20;55.80;;;;;;5034197;28;20439;-82
2021/04/26 00:26:12;;;;;;;4.43;2.40;;;7.20;56.00;;;;;;5033815;28;20494;-82
2021/04/26 00:28:39;;;;;;;2.57;1.77;;;7.20;55.80;;;;;;5034246;28;20520;-82
2021/04/26 00:31:05;;;;;;;3.60;1.90;;;7.20;55.90;;;;;;5034258;28;20451;-82
2021/04/26 00:33:32;;;;;;;2.50;2.07;;;7.20;56.00;;;;;;5034142;28;20443;-82
2021/04/26 00:35:58;;;;;;;1.70;1.60;;;7.20;56.10;;;;;;5033901;28;20467;-82
2021/04/26 00:38:24;;;;;;;4.17;1.63;;;7.20;56.50;;;;;;5033862;28;20476;-77
2021/04/26 00:40:50;;;;;;;2.33;2.13;;;7.10;56.70;;;;;;5034641;28;20504;-77
2021/04/26 00:43:17;;;;;;;2.60;1.87;;;7.10;57.20;;;;;;5034057;28;20439;-77
2021/04/26 00:45:53;;;;;;;2.23;1.77;;;7.00;57.10;;;;;;5033670;28;20473;-77
2021/04/26 00:48:19;;;;;;;2.60;2.10;;;7.00;57.30;;;;;;5033916;28;20486;-77
2021/04/26 00:50:45;;;;;;;3.10;2.13;;;6.90;57.90;;;;;;5033954;28;20500;-77
2021/04/26 00:53:12;;;;;;;2.87;2.17;;;6.90;57.80;;;;;;5033925;28;20451;-77
2021/04/26 00:55:39;;;;;;;3.83;2.53;;;6.90;57.90;;;;;;5033826;28;20470;-77
2021/04/26 00:58:06;;;;;;;4.73;2.23;;;6.80;58.00;;;;;;5033838;28;20447;-77
2021/04/26 01:00:34;;;;;;;2.90;1.97;;;6.90;58.20;;;;;;5033485;28;20457;-77
2021/04/26 01:03:01;;;;;;;3.70;2.33;;;6.80;58.00;;;;;;5033744;28;20462;-77
2021/04/26 01:05:29;;;;;;;7.63;2.50;;;6.80;58.20;;;;;;5033359;28;20446;-77
2021/04/26 01:07:56;;;;;;;2.17;1.90;;;6.80;58.60;;;;;;5033328;28;20474;-77
2021/04/26 01:10:25;;;;;;;2.17;2.03;;;6.80;58.70;;;;;;5033670;28;20453;-77
2021/04/26 01:13:07;;;;;;;2.60;2.10;;;6.70;59.00;;;;;;5033601;28;20446;-77
2021/04/26 01:15:41;;;;;;;3.53;2.27;;;6.70;59.10;;;;;;5033268;28;20435;-77
2021/04/26 01:18:15;;;;;;;3.80;2.47;;;6.60;59.50;;;;;;5033571;28;20491;-77
2021/04/26 01:21:24;;;;;;;5.07;2.13;;;6.60;60.70;;;;;;5033525;28;20438;-77
2021/04/26 01:24:27;;;;;;;2.80;1.87;;;6.50;60.20;;;;;;5033193;28;20988;-77
2021/04/26 01:27:05;;;;;;;3.97;2.67;;;6.50;60.50;;;;;;5031540;28;21039;-77
2021/04/26 01:30:03;;;;;;;3.50;2.03;;;6.50;61.60;;;;;;5032700;28;20427;-82
2021/04/26 01:32:35;;;;;;;8.73;3.07;;;6.50;60.80;;;;;;5032378;28;20422;-82
2021/04/26 01:35:04;;;;;;;7.97;3.10;;;6.60;60.40;;;;;;5032638;28;20426;-82
2021/04/26 01:37:34;;;;;;;2.50;2.30;;;6.40;61.20;;;;;;5032097;28;21028;-82
2021/04/26 01:40:02;;;;;;;2.80;2.50;;;6.40;60.90;;;;;;5032555;28;20431;-77
2021/04/26 01:42:29;;;;;;;4.10;2.97;;;6.40;61.10;;;;;;5032520;28;20435;-76
2021/04/26 01:44:56;;;;;;;3.50;2.60;;;6.40;61.90;;;;;;5033025;28;20458;-77
2021/04/26 01:47:25;;;;;;;2.47;2.00;;;6.30;63.10;;;;;;5035799;28;20494;-76
2021/04/26 01:49:53;;;;;;;2.63;2.37;;;6.30;62.10;;;;;;5035639;28;21087;-77
2021/04/26 01:52:20;;;;;;;4.10;2.80;;;6.30;62.60;;;;;;5035888;28;20450;-77
2021/04/26 01:54:47;;;;;;;5.80;2.63;;;6.20;62.70;;;;;;5035921;28;20801;-77
2021/04/26 01:57:15;;;;;;;5.60;2.77;;;6.10;63.40;;;;;;5035448;28;20477;-77
2021/04/26 01:59:41;;;;;;;4.77;2.80;;;6.10;63.70;;;;;;5035794;28;20454;-76
2021/04/26 02:02:08;;;;;;;3.83;2.97;;;6.10;63.30;;;;;;5035760;28;20461;-77
2021/04/26 02:04:37;;;;;;;6.63;4.10;;;6.10;63.50;;;;;;5035386;28;20953;-77
2021/04/26 02:07:05;;;;;;;3.30;2.50;;;6.10;64.20;;;;;;5035986;28;20482;-76
2021/04/26 02:09:35;;;;;;;2.93;2.57;;;6.10;64.40;;;;;;5035678;28;20457;-77
2021/04/26 02:12:01;;;;;;;3.47;2.57;;;6.00;64.40;;;;;;5035309;28;20449;-77
2021/04/26 02:14:28;;;;;;;5.90;3.03;;;5.90;65.30;;;;;;5035554;28;20454;-77
2021/04/26 02:16:55;;;;;;;4.17;2.80;;;5.90;66.80;;;;;;5035158;28;20478;-77
2021/04/26 02:19:22;;;;;;;3.60;2.80;;;5.90;66.90;;;;;;5035535;28;20446;-76
2021/04/26 02:21:48;;;;;;;4.73;2.40;;;5.90;67.00;;;;;;5035475;28;20449;-77
2021/04/26 02:24:15;;;;;;;3.83;2.50;;;5.90;67.00;;;;;;5035098;28;20972;-77
2021/04/26 02:26:42;;;;;;;3.00;2.70;;;5.80;66.90;;;;;;5016745;28;544964;-77
2021/04/26 02:29:08;;;;;;;6.20;3.43;;;5.80;67.80;;;;;;5036605;28;20455;-77
2021/04/26 02:31:36;;;;;;;7.40;3.43;;;5.80;67.20;;;;;;5036331;28;20439;-77
2021/04/26 02:34:10;;;;;;;2.87;2.67;;;5.70;67.50;;;;;;5036510;28;20451;-77
2021/04/26 02:36:42;;;;;;;4.70;3.07;;;5.70;67.60;;;;;;5036127;28;20466;-77
2021/04/26 02:39:09;;;;;;;3.47;3.17;;;5.80;69.00;;;;;;5036475;28;20438;-77
2021/04/26 02:41:40;;;;;;;3.63;2.80;;;5.70;69.10;;;;;;5036041;28;20980;-77
2021/04/26 02:44:13;;;;;;;4.73;3.17;;;5.70;69.00;;;;;;5036402;28;20445;-77
2021/04/26 02:46:40;;;;;;;3.67;3.37;;;5.70;69.70;;;;;;5036188;28;20470;-77
2021/04/26 02:49:08;;;;;;;3.47;3.17;;;5.60;69.10;;;;;;5036263;28;20481;-77
2021/04/26 02:51:37;;;;;;;4.67;3.10;;;5.60;70.70;;;;;;5036210;28;20545;-77
2021/04/26 02:54:05;;;;;;;6.20;3.60;;;5.60;70.80;;;;;;5036153;28;20446;-77
2021/04/26 02:56:36;;;;;;;4.03;3.07;;;5.60;72.00;;;;;;5034708;28;20584;-77
2021/04/26 02:59:06;;;;;;;3.93;3.30;;;5.50;71.30;;;;;;5036136;28;20427;-77
2021/04/26 03:01:32;;;;;;;7.30;4.10;;;5.50;71.60;;;;;;5035726;28;20435;-77
2021/04/26 03:03:59;;;;;;;3.90;3.27;;;5.50;71.70;;;;;;5035774;28;20431;-77
2021/04/26 03:06:26;;;;;;;5.53;3.37;;;5.40;71.20;;;;;;5035836;28;20471;-77
2021/04/26 03:08:52;;;;;;;4.73;3.27;;;5.40;72.00;;;;;;5035826;28;20478;-77
2021/04/26 03:11:20;;;;;;;5.23;3.40;;;5.40;71.70;;;;;;5035694;28;20826;-77
2021/04/26 03:13:48;;;;;;;4.03;3.63;;;5.30;71.80;;;;;;5035761;28;20442;-77
2021/04/26 03:16:15;;;;;;;8.00;3.97;;;5.30;71.90;;;;;;5035582;28;20831;-77
2021/04/26 03:18:42;;;;;;;6.80;3.37;;;5.30;73.50;;;;;;5035706;28;20859;-82
2021/04/26 03:21:10;;;;;;;4.53;4.10;;;5.20;73.60;;;;;;5035344;28;20946;-83
2021/04/26 03:23:37;;;;;;;6.10;3.60;;;5.20;74.30;;;;;;5035625;28;20477;-83
2021/04/26 03:26:06;;;;;;;4.97;4.47;;;5.20;74.40;;;;;;5035158;28;20497;-83
2021/04/26 03:28:34;;;;;;;5.67;4.27;;;5.10;73.80;;;;;;5035793;28;20831;-83
2021/04/26 03:31:03;;;;;;;14.73;4.37;;;5.20;75.20;;;;;;5035491;28;20845;-83
2021/04/26 03:33:31;;;;;;;5.00;4.50;;;5.20;76.50;;;;;;5035432;28;20447;-83
2021/04/26 03:35:57;;;;;;;6.40;4.00;;;5.20;77.90;;;;;;5035356;28;20482;-83
2021/04/26 03:38:24;;;;;;;3.97;3.47;;;5.20;77.50;;;;;;5035293;28;20446;-83
2021/04/26 03:40:50;;;;;;;5.17;3.90;;;5.20;78.50;;;;;;5035267;28;20457;-83
2021/04/26 03:43:17;;;;;;;7.20;4.07;;;5.10;79.20;;;;;;5034994;28;20930;-84
2021/04/26 03:45:44;;;;;;;7.37;4.20;;;5.10;79.80;;;;;;5035178;28;20473;-83
2021/04/26 03:48:12;;;;;;;5.57;4.40;;;5.00;79.00;;;;;;5034784;28;21009;-78
2021/04/26 03:50:38;;;;;;;7.00;4.30;;;5.00;80.60;;;;;;5035079;28;20450;-77
2021/04/26 03:53:04;;;;;;;6.30;4.80;;;4.90;81.10;;;;;;5034711;28;20959;-78
2021/04/26 03:55:30;;;;;;;5.93;4.67;;;4.90;80.90;;;;;;5034667;28;20827;-77
2021/04/26 03:57:57;;;;;;;5.63;4.60;;;4.90;81.60;;;;;;5034990;28;20434;-78
2021/04/26 04:00:24;;;;;;;5.40;4.20;;;4.90;83.00;;;;;;5034775;28;20942;-77
2021/04/26 04:02:50;;;;;;;6.73;4.17;;;4.80;82.90;;;;;;5034857;28;20462;-78
2021/04/26 04:05:19;;;;;;;8.90;4.80;;;4.80;84.20;;;;;;5034493;28;20930;-78
2021/04/26 04:07:46;;;;;;;8.20;4.53;;;4.80;85.60;;;;;;5034364;28;20561;-77
2021/04/26 04:10:13;;;;;;;6.67;4.17;;;4.60;84.50;;;;;;5034735;28;20447;-78
2021/04/26 04:12:40;;;;;;;4.97;3.50;;;4.60;85.70;;;;;;5034328;28;20487;-78
2021/04/26 04:15:09;;;;;;;5.33;4.37;;;4.60;85.50;;;;;;5034584;28;20450;-77
2021/04/26 04:17:36;;;;;;;4.77;3.97;;;4.60;87.10;;;;;;5034493;28;20486;-77
2021/04/26 04:20:03;;;;;;;5.70;4.53;;;4.60;87.40;;;;;;5034522;28;20509;-77
2021/04/26 04:22:30;;;;;;;7.60;4.10;;;4.50;89.00;;;;;;5034134;28;20969;-77
2021/04/26 04:24:56;;;;;;;6.50;5.10;;;4.50;89.90;;;;;;5034262;28;20516;-78
2021/04/26 04:27:23;;;;;;;5.00;4.50;;;4.50;90.30;;;;;;5033945;28;20861;-77
2021/04/26 04:29:49;;;;;;;6.77;4.80;;;4.50;90.00;;;;;;5034095;28;20447;-77
2021/04/26 04:32:15;;;;;;;5.83;4.47;;;4.50;90.30;;;;;;5034316;28;20504;-77
2021/04/26 04:34:41;;;;;;;7.13;4.70;;;4.50;91.20;;;;;;5034268;28;20504;-78
2021/04/26 04:37:08;;;;;;;12.53;5.20;;;4.50;91.60;;;;;;5033794;28;20922;-77
2021/04/26 04:39:35;;;;;;;7.97;4.90;;;4.50;91.00;;;;;;5034035;28;20455;-78
2021/04/26 04:42:01;;;;;;;10.23;5.00;;;4.40;91.00;;;;;;5034132;28;20458;-77
2021/04/26 04:44:27;;;;;;;6.53;4.70;;;4.50;90.90;;;;;;5034110;28;20450;-77
2021/04/26 04:46:53;;;;;;;6.97;5.07;;;4.50;90.90;;;;;;5033876;28;20467;-77
2021/04/26 04:49:19;;;;;;;5.73;4.70;;;4.50;90.60;;;;;;5033977;28;20508;-78
2021/04/26 04:51:46;;;;;;;8.27;4.93;;;4.50;91.10;;;;;;5033822;28;20450;-77
2021/04/26 04:54:12;;;;;;;5.97;4.97;;;4.50;91.50;;;;;;5033968;28;20454;-78
2021/04/26 04:56:39;;;;;;;12.77;5.40;;;4.50;92.30;;;;;;5033465;28;20985;-78
2021/04/26 04:59:06;;;;;;;7.53;4.60;;;4.50;92.60;;;;;;5033782;28;20450;-78
2021/04/26 05:01:32;;;;;;;5.83;4.57;;;4.50;92.00;;;;;;5033790;28;20458;-77
2021/04/26 05:03:59;;;;;;;6.37;5.33;;;4.50;91.60;;;;;;5033449;28;20973;-78
2021/04/26 05:06:25;;;;;;;9.43;5.00;;;4.60;90.60;;;;;;5033640;28;20470;-77
2021/04/26 05:08:52;;;;;;;7.63;5.53;;;4.70;90.60;;;;;;5033600;28;20486;-78
2021/04/26 05:11:18;;;;;;;5.70;4.80;;;4.70;91.60;;;;;;5034329;28;20481;-77
2021/04/26 05:13:45;;;;;;;5.87;4.70;;;4.70;91.50;;;;;;5033632;28;20451;-78
2021/04/26 05:16:12;;;;;;;7.33;5.23;;;4.80;91.90;;;;;;5033502;28;20847;-77
2021/04/26 05:18:39;;;;;;;8.93;4.93;;;4.80;91.50;;;;;;5033164;28;20449;-77
2021/04/26 05:21:05;;;;;;;7.33;4.93;;;4.80;92.20;;;;;;5032865;28;20451;-78
2021/04/26 05:23:32;;;;;;;8.53;5.47;;;4.80;91.90;;;;;;5033180;28;20941;-78
2021/04/26 05:25:58;;;;;;;6.70;4.90;;;4.90;91.70;;;;;;5033091;28;20487;-77
2021/04/26 05:28:24;;;;;;;9.43;5.20;;;5.00;91.70;;;;;;5033083;28;20486;-77
2021/04/26 05:30:52;;;;;;;7.57;5.07;;;5.10;91.50;;;;;;5033408;28;20447;-77
2021/04/26 05:33:18;;;;;;;6.97;4.87;;;5.10;91.40;;;;;;5033387;28;20450;-77
2021/04/26 05:35:44;;;;;;;11.17;4.90;;;5.20;91.60;;;;;;5033282;28;20474;-77
2021/04/26 05:38:12;;;;;;;6.37;5.03;;;5.30;90.70;;;;;;5033322;28;20497;-77
2021/04/26 05:40:39;;;;;;;6.23;4.97;;;5.40;90.40;;;;;;5033316;28;20457;-77
2021/04/26 05:43:07;;;;;;;7.00;5.43;;;5.40;90.50;;;;;;5033256;28;20451;-77
2021/04/26 05:45:34;;;;;;;7.53;4.97;;;5.50;89.80;;;;;;5033161;28;20537;-77
2021/04/26 05:48:01;;;;;;;6.10;4.70;;;5.70;88.60;;;;;;5032888;28;20475;-76
2021/04/26 05:50:27;;;;;;;12.57;5.50;;;5.80;87.20;;;;;;5032955;28;20443;-76
2021/04/26 05:52:54;;;;;;;5.23;4.60;;;6.00;86.90;;;;;;5033081;28;20455;-76
2021/04/26 05:55:21;;;;;;;6.40;4.50;;;6.30;84.60;;;;;;5033114;28;20451;-77
2021/04/26 05:57:47;;;;;;;5.37;4.87;;;6.60;84.50;;;;;;5033114;28;20512;-76
2021/04/26 06:00:14;;;;;;;5.60;4.70;;;6.80;84.10;;;;;;5033104;28;20545;-77
2021/04/26 06:02:41;;;;;;;6.60;5.00;;;7.10;81.20;;;;;;5032875;28;20435;-77
2021/04/26 06:05:09;;;;;;;7.87;4.87;;;7.50;78.50;;;;;;5032830;28;20435;-77
2021/04/26 06:07:35;;;;;;;8.93;4.40;;;7.90;76.20;;;;;;5032869;28;20490;-77
2021/04/26 06:10:02;;;;;;;8.53;5.00;;;8.40;72.80;;;;;;5033263;28;20451;-77
2021/04/26 06:12:29;;;;;;;7.47;5.00;;;8.60;72.50;;;;;;5032684;28;20489;-77
2021/04/26 06:14:55;;;;;;;5.00;4.43;;;8.90;69.40;;;;;;5032949;28;20447;-77
2021/04/26 06:17:21;;;;;;;7.83;4.70;;;9.00;65.60;;;;;;5033417;28;20470;-77
2021/04/26 06:19:47;;;;;;;4.37;3.97;;;9.20;65.10;;;;;;5032615;28;20477;-77
2021/04/26 06:22:14;;;;;;;4.27;3.97;;;9.40;63.70;;;;;;5032907;28;20497;-78
2021/04/26 06:24:41;;;;;;;6.10;4.60;;;9.70;62.90;;;;;;5032526;28;20462;-78
2021/04/26 06:27:07;;;;;;;6.30;5.03;;;9.90;61.40;;;;;;5032344;28;20851;-78
2021/04/26 06:29:33;;;;;;;4.80;4.30;;;10.20;59.40;;;;;;5033634;28;20451;-78
2021/04/26 06:32:00;;;;;;;7.70;4.60;;;10.80;57.70;;;;;;5035467;28;20461;-78
2021/04/26 06:34:26;;;;;;;6.77;4.87;;;11.10;57.40;;;;;;5037070;28;20446;-78
2021/04/26 06:36:53;;;;;;;4.77;4.37;;;11.60;55.40;;;;;;5036327;28;20961;-78
2021/04/26 06:39:20;;;;;;;10.70;4.90;;;11.90;54.80;;;;;;5036226;28;20791;-78
2021/04/26 06:41:46;;;;;;;5.43;4.90;;;12.50;53.10;;;;;;5036423;28;20446;-77
2021/04/26 06:44:12;;;;;;;5.20;4.70;;;13.30;53.80;;;;;;5036865;28;20823;-78
2021/04/26 06:46:38;;;;;;;5.07;4.20;;;14.20;51.10;;;;;;5035989;28;20454;-78
2021/04/26 06:49:05;;;;;;;6.27;4.80;;;15.10;48.20;;;;;;5036658;28;20494;-79
2021/04/26 06:51:31;;;;;;;7.67;5.00;;;16.00;45.80;;;;;;5035940;28;20473;-77
2021/04/26 06:53:58;;;;;;;4.57;4.17;;;16.80;45.00;;;;;;5035946;28;20416;-78
2021/04/26 06:56:25;;;;;;;4.80;4.40;;;17.20;43.90;;;;;;5035963;28;20458;-79
2021/04/26 06:58:51;;;;;;;4.60;3.90;;;18.30;41.50;;;;;;5035826;28;20423;-84
2021/04/26 07:01:17;;;;;;;4.80;3.97;;;19.20;41.60;;;;;;5035850;28;20427;-84
2021/04/26 07:03:43;;;;;;;4.67;4.30;;;20.10;39.00;;;;;;5036020;28;20446;-83
2021/04/26 07:06:10;;;;;;;4.50;4.10;;;20.40;36.50;;;;;;5035884;28;20474;-84
2021/04/26 07:11:19;;;;;;;4.55;4.18;;;20.50;37.60;;;;;;5036023;28;20195;-83
2021/04/26 07:13:46;;;;;;;4.70;4.30;;;20.50;36.70;;;;;;5035312;28;20729;-83
2021/04/26 07:16:22;;;;;;;4.60;4.00;;;20.80;34.70;;;;;;5035641;28;20223;-83
2021/04/26 07:18:50;;;;;;;5.60;4.30;;;21.40;35.30;;;;;;5036084;28;20187;-83
2021/04/26 07:21:17;;;;;;;5.15;4.63;;;22.20;34.90;;;;;;5035330;28;20687;-83
2021/04/26 07:23:43;;;;;;;5.45;4.95;;;23.20;33.60;;;;;;5035626;28;20215;-83
2021/04/26 07:26:10;;;;;;;6.70;4.13;;;24.10;32.30;;;;;;5035074;28;20322;-83
2021/04/26 07:28:38;;;;;;;5.45;4.25;;;24.40;30.60;;;;;;5035210;28;20223;-83
2021/04/26 07:31:06;;;;;;;4.35;4.05;;;24.70;30.30;;;;;;5034965;28;20208;-83
2021/04/26 07:33:33;;;;;;;4.03;3.60;;;25.20;30.40;;;;;;5035190;28;20234;-84
2021/04/26 07:35:59;;;;;;;4.28;4.05;;;25.50;30.00;;;;;;5035563;28;20227;-84
2021/04/26 07:38:26;;;;;;;4.68;4.38;;;25.10;29.60;;;;;;5035118;28;20253;-83
2021/04/26 07:40:56;;;;;;;5.93;4.57;;;25.50;29.30;;;;;;5034879;28;20206;-83
2021/04/26 07:43:24;;;;;;;5.70;4.50;;;25.90;29.00;;;;;;5034255;28;20663;-84
2021/04/26 07:45:53;;;;;;;5.15;4.63;;;26.10;28.90;;;;;;5034957;28;20235;-83
2021/04/26 07:48:20;;;;;;;5.43;4.97;;;26.70;28.50;;;;;;5035099;28;20223;-83
2021/04/26 07:50:52;;;;;;;8.07;4.68;;;27.40;27.30;;;;;;5035154;28;20199;-83
2021/04/26 07:53:21;;;;;;;5.05;4.75;;;27.50;27.80;;;;;;5035098;28;20197;-83
2021/04/26 07:55:49;;;;;;;4.68;4.25;;;28.00;27.80;;;;;;5034720;28;20220;-83
2021/04/26 07:58:36;;;;;;;4.05;3.85;;;28.90;26.50;;;;;;5032959;28;20583;-84
2021/04/26 08:01:03;;;;;;;4.60;4.20;;;29.80;25.80;;;;;;5034879;28;20572;-83
2021/04/26 08:03:30;;;;;;;4.47;4.18;;;30.00;25.10;;;;;;5034661;28;20303;-83
2021/04/26 08:06:01;;;;;;;5.07;4.57;;;30.70;24.80;;;;;;5034881;28;20236;-83
2021/04/26 08:08:32;;;;;;;6.97;4.45;;;31.10;24.40;;;;;;5034403;28;20229;-82
2021/04/26 08:11:01;;;;;;;4.78;4.38;;;31.40;24.50;;;;;;5029938;28;20211;-83
2021/04/26 08:13:28;;;;;;;5.32;4.90;;;31.40;24.10;;;;;;5034465;28;20709;-83
2021/04/26 08:18:39;;;;;;;5.65;5.20;;;32.00;23.20;;;;;;5030716;28;20269;-83
2021/04/26 08:21:11;;;;;;;4.80;4.40;;;31.50;23.60;;;;;;5034003;28;20303;-83
2021/04/26 08:23:39;;;;;;;11.18;4.20;;;32.00;24.10;;;;;;5034187;28;20205;-83
2021/04/26 08:26:11;;;;;;;4.25;3.92;;;32.40;23.40;;;;;;5033484;28;20234;-82
2021/04/26 08:28:39;;;;;;;4.57;4.28;;;32.60;23.20;;;;;;5017424;28;20214;-83
2021/04/26 08:31:10;;;;;;;4.43;4.13;;;32.60;22.90;;;;;;5016851;28;20233;-82
2021/04/26 08:33:54;;;;;;;5.20;4.70;;;32.70;22.60;;;;;;5033544;28;20627;-82
2021/04/26 08:36:21;;;;;;;5.63;4.07;;;32.20;23.30;;;;;;5033755;28;20757;-83
2021/04/26 08:38:52;;;;;;;4.88;4.47;;;31.10;23.60;;;;;;5035198;28;20201;-83
2021/04/26 08:41:21;;;;;;;4.72;4.43;;;30.40;23.80;;;;;;5033706;28;20336;-82
2021/04/26 08:43:47;;;;;;;4.55;4.25;;;29.90;24.20;;;;;;5034137;28;20200;-82
2021/04/26 08:46:14;;;;;;;5.07;4.70;;;29.10;24.30;;;;;;5034161;28;20259;-82
2021/04/26 08:48:42;;;;;;;4.78;4.45;;;28.40;25.30;;;;;;5034799;28;20240;-82
2021/04/26 08:51:09;;;;;;;5.15;4.65;;;27.30;25.70;;;;;;5034105;28;20265;-80
2021/04/26 08:53:35;;;;;;;4.95;4.55;;;26.20;26.90;;;;;;5034000;28;20208;-80
2021/04/26 08:56:05;;;;;;;5.57;4.32;;;25.70;27.10;;;;;;5033858;28;20242;-80
2021/04/26 08:58:33;;;;;;;5.20;4.70;;;25.20;27.70;;;;;;5033437;28;20227;-80
2021/04/26 09:01:03;;;;;;;5.47;4.95;;;25.00;28.60;;;;;;5033567;28;20183;-80
2021/04/26 09:03:35;;;;;;;5.15;4.72;;;25.00;28.50;;;;;;5033390;28;20204;-80
2021/04/26 09:06:02;;;;;;;7.25;5.25;;;25.60;27.80;;;;;;5033457;28;20219;-80
2021/04/26 09:08:32;;;;;;;5.15;4.75;;;26.40;27.10;;;;;;5033538;28;20218;-80
2021/04/26 09:11:03;;;;;;;5.03;4.72;;;26.80;27.30;;;;;;5032905;28;20203;-80
2021/04/26 09:13:36;;;;;;;5.22;4.82;;;27.30;26.60;;;;;;5032209;28;20187;-80
2021/04/26 09:16:09;;;;;;;4.93;4.53;;;27.40;26.90;;;;;;5015928;28;20227;-80
2021/04/26 09:18:54;;;;;;;4.50;4.20;;;27.30;27.30;;;;;;5033663;28;20184;-80
2021/04/26 09:21:25;;;;;;;4.72;4.32;;;27.10;26.70;;;;;;5033940;28;20594;-80
2021/04/26 09:24:14;;;;;;;5.32;4.90;;;26.60;27.10;;;;;;5033553;28;20282;-80
2021/04/26 09:26:41;;;;;;;4.60;4.22;;;25.80;27.70;;;;;;5033125;28;20280;-79
2021/04/26 09:29:13;;;;;;;5.03;4.68;;;25.50;27.40;;;;;;5033340;28;20231;-78
2021/04/26 09:31:39;;;;;;;4.90;4.60;;;25.20;28.20;;;;;;5033504;28;20184;-79
2021/04/26 09:34:06;;;;;;;5.63;4.95;;;24.70;27.50;;;;;;5033192;28;20187;-79
2021/04/26 09:36:33;;;;;;;4.80;4.50;;;24.50;28.10;;;;;;5033386;28;20246;-79
2021/04/26 09:39:04;;;;;;;5.55;5.05;;;24.70;28.20;;;;;;5033407;28;20203;-79
2021/04/26 09:41:31;;;;;;;8.75;5.10;;;24.60;28.80;;;;;;5033071;28;20701;-79
2021/04/26 09:44:09;;;;;;;5.05;4.50;;;25.20;29.10;;;;;;5033298;28;20299;-79
2021/04/26 09:46:41;;;;;;;6.47;5.97;;;25.50;27.60;;;;;;5033367;28;20223;-79
2021/04/26 09:49:12;;;;;;;5.40;5.00;;;25.20;28.00;;;;;;5033219;28;20211;-80
2021/04/26 09:51:40;;;;;;;5.43;4.90;;;24.60;29.20;;;;;;5032955;28;20191;-79
2021/04/26 09:54:07;;;;;;;4.90;4.50;;;24.40;29.10;;;;;;5033748;28;20446;-80
2021/04/26 09:56:39;;;;;;;5.53;4.80;;;24.00;28.00;;;;;;5033168;28;20466;-79
2021/04/26 09:59:06;;;;;;;6.30;5.50;;;23.40;28.80;;;;;;5033215;28;20430;-79
2021/04/26 10:01:32;;;;;;;6.30;4.70;;;23.30;30.20;;;;;;5033139;28;20461;-79
2021/04/26 10:03:59;;;;;;;4.60;4.20;;;23.60;28.50;;;;;;5033152;28;20430;-80
2021/04/26 10:06:26;;;;;;;4.87;4.47;;;23.50;29.20;;;;;;5034923;28;20477;-79
2021/04/26 10:08:55;;;;;;;4.83;4.20;;;23.60;30.00;;;;;;5037076;28;20211;-80
2021/04/26 10:11:26;;;;;;;5.23;4.73;;;23.80;28.00;;;;;;5037067;28;20254;-80
2021/04/26 10:14:00;;;;;;;5.00;4.57;;;23.40;27.20;;;;;;5037099;28;20220;-79
2021/04/26 10:16:37;;;;;;;4.32;3.92;;;23.30;29.00;;;;;;5036573;28;20814;-79
2021/04/26 10:19:05;;;;;;;4.77;4.37;;;23.30;29.80;;;;;;5036630;28;20188;-79
2021/04/26 10:21:35;;;;;;;5.27;4.40;;;23.50;27.40;;;;;;5036895;28;20191;-79
2021/04/26 10:24:18;;;;;;;5.37;4.87;;;23.30;28.20;;;;;;5036843;28;20561;-80
2021/04/26 10:26:48;;;;;;;4.77;4.43;;;23.00;29.00;;;;;;5036361;28;20231;-79
2021/04/26 10:29:17;;;;;;;4.63;4.20;;;22.80;28.70;;;;;;5036358;28;21057;-79
2021/04/26 10:32:10;;;;;;;4.80;4.50;;;22.80;28.10;;;;;;5036725;28;20438;-80
2021/04/26 10:34:58;;;;;;;5.07;4.40;;;23.10;28.50;;;;;;5036284;28;20445;-80
2021/04/26 10:37:26;;;;;;;5.03;4.63;;;23.80;28.70;;;;;;5035931;28;20230;-81
2021/04/26 10:40:06;;;;;;;5.03;4.55;;;25.10;27.60;;;;;;5036040;28;20618;-81
2021/04/26 10:42:34;;;;;;;5.00;4.60;;;25.70;26.90;;;;;;5036378;28;20176;-81
2021/04/26 10:45:00;;;;;;;5.07;4.78;;;26.40;26.60;;;;;;5036012;28;20673;-82
2021/04/26 10:47:29;;;;;;;4.50;4.20;;;26.70;27.20;;;;;;5036369;28;20310;-81
2021/04/26 10:50:28;;;;;;;4.68;4.18;;;27.70;26.90;;;;;;5036297;28;20274;-82
2021/04/26 10:52:55;;;;;;;4.97;3.97;;;28.90;25.20;;;;;;5036166;28;20192;-81
2021/04/26 10:55:53;;;;;;;4.60;4.13;;;29.00;24.10;;;;;;5036556;28;20541;-81
2021/04/26 10:58:26;;;;;;;5.75;5.22;;;28.60;24.20;;;;;;5002233;28;20565;-81
2021/04/26 11:00:53;;;;;;;4.93;4.35;;;28.40;24.30;;;;;;5035688;28;20227;-81
2021/04/26 11:03:42;;;;;;;4.68;4.25;;;27.90;24.80;;;;;;5035528;28;20192;-82
2021/04/26 11:06:13;;;;;;;5.43;4.55;;;26.70;26.30;;;;;;5035647;28;20718;-82
2021/04/26 11:08:42;;;;;;;5.60;5.20;;;25.30;26.50;;;;;;5035910;28;20223;-82
2021/04/26 11:11:13;;;;;;;6.97;4.40;;;24.00;27.50;;;;;;5035668;28;20207;-81
2021/04/26 11:13:42;;;;;;;5.00;4.60;;;22.80;27.80;;;;;;5035920;28;20188;-79
2021/04/26 11:16:11;;;;;;;5.93;5.33;;;21.60;28.40;;;;;;5035489;28;20227;-78
2021/04/26 11:18:39;;;;;;;5.50;5.10;;;20.50;29.20;;;;;;5034357;28;20898;-80
2021/04/26 11:21:07;;;;;;;5.37;4.40;;;19.70;30.10;;;;;;5035767;28;20453;-79
2021/04/26 11:23:45;;;;;;;6.23;5.07;;;19.10;32.10;;;;;;5036407;28;20890;-79
2021/04/26 11:26:14;;;;;;;6.73;4.97;;;18.90;31.50;;;;;;5035062;28;20486;-79
2021/04/26 11:29:08;;;;;;;5.00;4.60;;;18.80;34.10;;;;;;5035427;28;20509;-78
2021/04/26 11:32:03;;;;;;;5.23;4.73;;;18.60;31.10;;;;;;5035517;28;20518;-78
2021/04/26 11:35:05;;;;;;;5.63;5.13;;;18.50;32.40;;;;;;5035184;28;20446;-78
2021/04/26 11:37:35;;;;;;;5.80;5.30;;;18.20;33.00;;;;;;5035293;28;20478;-78
2021/04/26 11:40:13;;;;;;;5.83;4.77;;;18.10;33.80;;;;;;5035732;28;20419;-78
2021/04/26 11:42:40;;;;;;;5.90;4.97;;;18.00;32.70;;;;;;5035036;28;20779;-78
2021/04/26 11:45:09;;;;;;;6.00;5.30;;;17.80;33.10;;;;;;5035237;28;20454;-80
2021/04/26 11:47:36;;;;;;;7.97;5.60;;;17.80;33.50;;;;;;5034919;28;20462;-82
2021/04/26 11:50:04;;;;;;;6.40;4.90;;;17.70;33.80;;;;;;5034907;28;20934;-81
2021/04/26 11:52:32;;;;;;;6.23;5.60;;;17.40;34.80;;;;;;5034798;28;20938;-81
2021/04/26 11:55:10;;;;;;;4.93;4.40;;;17.30;36.30;;;;;;5035371;28;20439;-80
2021/04/26 11:57:42;;;;;;;6.80;4.97;;;17.30;34.50;;;;;;5035015;28;20589;-80
2021/04/26 12:00:11;;;;;;;5.17;4.67;;;17.40;35.70;;;;;;5034611;28;20446;-80
2021/04/26 12:02:39;;;;;;;5.03;4.53;;;17.20;33.70;;;;;;5034946;28;20821;-81
2021/04/26 12:05:07;;;;;;;7.57;5.80;;;17.10;34.50;;;;;;5034861;28;20504;-81
2021/04/26 12:07:34;;;;;;;6.90;5.00;;;17.00;35.00;;;;;;5034374;28;20467;-80
2021/04/26 12:10:02;;;;;;;6.80;5.90;;;17.00;35.60;;;;;;5034803;28;20454;-80
2021/04/26 12:12:30;;;;;;;5.20;4.60;;;17.00;36.40;;;;;;5034741;28;20462;-81
2021/04/26 12:14:59;;;;;;;4.83;4.30;;;17.10;37.10;;;;;;5034704;28;20863;-80
2021/04/26 12:17:26;;;;;;;8.27;4.67;;;17.10;34.40;;;;;;5034555;28;20545;-80
2021/04/26 12:19:54;;;;;;;4.50;4.20;;;17.00;34.70;;;;;;5034581;28;20496;-80
2021/04/26 12:22:24;;;;;;;6.63;5.27;;;16.70;34.10;;;;;;5034567;28;20454;-80
2021/04/26 12:24:51;;;;;;;4.90;4.03;;;16.50;33.90;;;;;;5034300;28;20497;-81
2021/04/26 12:27:20;;;;;;;6.07;4.57;;;16.20;34.90;;;;;;5033938;28;20498;-77
2021/04/26 12:29:46;;;;;;;6.07;5.23;;;16.30;33.80;;;;;;5033858;28;20554;-77
2021/04/26 12:32:18;;;;;;;4.90;4.37;;;16.20;34.20;;;;;;5034041;28;20993;-77
2021/04/26 12:34:56;;;;;;;4.37;3.97;;;16.10;33.70;;;;;;5034275;28;20447;-77
2021/04/26 12:37:26;;;;;;;4.57;3.20;;;16.10;32.50;;;;;;5034284;28;20494;-77
2021/04/26 12:39:53;;;;;;;4.23;3.30;;;16.00;32.60;;;;;;5034260;28;20461;-77
2021/04/26 12:42:21;;;;;;;3.87;3.53;;;16.00;32.50;;;;;;5034478;28;20446;-77
2021/04/26 12:44:48;;;;;;;8.30;3.80;;;15.80;31.50;;;;;;5034117;28;20539;-77
2021/04/26 12:47:21;;;;;;;5.50;3.70;;;15.50;31.90;;;;;;5033995;28;20536;-77
2021/04/26 12:49:48;;;;;;;4.30;3.37;;;15.50;32.10;;;;;;5034003;28;20490;-77
2021/04/26 12:52:16;;;;;;;4.43;3.53;;;15.50;33.10;;;;;;5033996;28;20455;-77
2021/04/26 12:55:02;;;;;;;4.70;4.17;;;15.60;31.80;;;;;;5033991;28;20490;-77
2021/04/26 12:57:29;;;;;;;6.07;3.80;;;15.50;32.20;;;;;;5033585;28;20463;-77
2021/04/26 12:59:55;;;;;;;8.80;4.37;;;15.40;32.10;;;;;;5033913;28;20454;-77
2021/04/26 13:02:24;;;;;;;5.80;4.30;;;15.30;32.50;;;;;;5033845;28;20446;-77
2021/04/26 13:04:51;;;;;;;3.80;3.40;;;15.20;32.70;;;;;;5033558;28;20439;-77
2021/04/26 13:07:19;;;;;;;4.73;4.33;;;15.00;33.80;;;;;;5033503;28;20457;-77